Midway, AR

11:01 PM CDT on August 29, 2016 (GMT -0500)
Chickasaw Street | | Change Station

Elev 869 ft 36.33 °N, 92.42 °W | Updated 6 minutes ago

Clear
Clear
78.8 °F
Feels Like 81 °F
N
0.6
Wind Variable Wind from North
Gusts 1.9 mph

Today
High -- | Low -- °F
--% Chance of Precip.
Yesterday
High -- | Low -- °F
Precip. -- in
Pressure 30.11 in
Visibility 7.0 miles
Clouds Clear
Heat Index 81 °F
Dew Point 69 °F
Humidity 72%
Rainfall 0.01 in
Snow Depth Not available.
6:39 AM 7:41 PM
Waning Crescent, 5% visible
METAR KBPK 300353Z AUTO 00000KT 7SM CLR 23/23 A3014 RMK AO2 SLP194 T02330228
Pressure 30.11 in
Visibility 7.0 miles
Clouds Clear
Heat Index 81 °F
Dew Point 69 °F
Humidity 72%
Rainfall 0.01 in
Snow Depth Not available.
6:39 AM 7:41 PM
Waning Crescent, 5% visible
METAR KBPK 300353Z AUTO 00000KT 7SM CLR 23/23 A3014 RMK AO2 SLP194 T02330228

10-Day Weather Forecast

Almanac

Astronomy

Aug. 29, 2016 Rise Set
Actual Time
Civil Twilight
Nautical Twilight
Astronomical Twilight
Moon
Length of Visible Light
Length of Day
Tomorrow will be .
, % of the Moon is Illuminated

Today's Extremes

State Highs State Lows

Community

WunderPhotos

Upload Photos

1,935,785 photos uploaded!

WunderBlog® & News

Nearby

Air Quality

  Air Quality AQ Index Pollutant
Not available.

Snow Depth

Station Depth Elevation

Earthquake Activity

City Distance Mag. Time & Date
Minimum magnitude displayed is 2.5.

Coastal Water Temperatures

Place Temperature

Stations

Nearby Weather Stations

Station Location Temp. Windchill Dew Point Humidity Wind Precip. Elev Updated Type
                   

Watches & Warnings

There are currently no watches in effect.